sensor_id;sensor_type;location;lat;lon;timestamp;P1;durP1;ratioP1;P2;durP2;ratioP2
50858;SDS011;36826;47.514;19.056;2022-08-19T00:01:32;8.10;;;5.07;;
50858;SDS011;36826;47.514;19.056;2022-08-19T00:04:00;6.50;;;4.95;;
50858;SDS011;36826;47.514;19.056;2022-08-19T00:06:29;6.05;;;4.82;;
50858;SDS011;36826;47.514;19.056;2022-08-19T00:08:55;7.15;;;5.05;;
50858;SDS011;36826;47.514;19.056;2022-08-19T00:11:21;5.18;;;4.68;;
50858;SDS011;36826;47.514;19.056;2022-08-19T00:13:47;6.35;;;4.75;;
50858;SDS011;36826;47.514;19.056;2022-08-19T00:16:15;6.93;;;5.10;;
50858;SDS011;36826;47.514;19.056;2022-08-19T00:18:44;5.70;;;5.10;;
50858;SDS011;36826;47.514;19.056;2022-08-19T00:21:09;5.72;;;4.97;;
50858;SDS011;36826;47.514;19.056;2022-08-19T00:23:35;7.05;;;5.15;;
50858;SDS011;36826;47.514;19.056;2022-08-19T00:26:02;8.02;;;5.65;;
50858;SDS011;36826;47.514;19.056;2022-08-19T00:28:28;5.95;;;5.35;;
50858;SDS011;36826;47.514;19.056;2022-08-19T00:30:55;7.03;;;5.50;;
50858;SDS011;36826;47.514;19.056;2022-08-19T00:33:20;5.45;;;4.95;;
50858;SDS011;36826;47.514;19.056;2022-08-19T00:35:46;6.97;;;5.53;;
50858;SDS011;36826;47.514;19.056;2022-08-19T00:38:11;7.20;;;5.40;;
50858;SDS011;36826;47.514;19.056;2022-08-19T00:40:37;6.65;;;5.18;;
50858;SDS011;36826;47.514;19.056;2022-08-19T00:43:07;7.47;;;6.05;;
50858;SDS011;36826;47.514;19.056;2022-08-19T00:45:33;7.32;;;5.55;;
50858;SDS011;36826;47.514;19.056;2022-08-19T00:48:01;7.78;;;5.47;;
50858;SDS011;36826;47.514;19.056;2022-08-19T00:50:29;7.25;;;5.20;;
50858;SDS011;36826;47.514;19.056;2022-08-19T00:52:56;7.83;;;5.90;;
50858;SDS011;36826;47.514;19.056;2022-08-19T00:55:23;6.97;;;5.68;;
50858;SDS011;36826;47.514;19.056;2022-08-19T00:57:55;6.50;;;5.50;;
50858;SDS011;36826;47.514;19.056;2022-08-19T01:00:25;7.63;;;4.97;;
50858;SDS011;36826;47.514;19.056;2022-08-19T01:02:52;7.82;;;5.63;;
50858;SDS011;36826;47.514;19.056;2022-08-19T01:05:22;6.10;;;5.35;;
50858;SDS011;36826;47.514;19.056;2022-08-19T01:07:52;7.28;;;5.88;;
50858;SDS011;36826;47.514;19.056;2022-08-19T01:10:20;7.63;;;5.80;;
50858;SDS011;36826;47.514;19.056;2022-08-19T01:12:49;8.27;;;5.75;;
50858;SDS011;36826;47.514;19.056;2022-08-19T01:15:17;7.45;;;5.32;;
50858;SDS011;36826;47.514;19.056;2022-08-19T01:17:46;7.68;;;5.50;;
50858;SDS011;36826;47.514;19.056;2022-08-19T01:20:14;7.18;;;6.00;;
50858;SDS011;36826;47.514;19.056;2022-08-19T01:22:43;6.90;;;5.50;;
50858;SDS011;36826;47.514;19.056;2022-08-19T01:25:12;6.47;;;5.72;;
50858;SDS011;36826;47.514;19.056;2022-08-19T01:27:43;6.05;;;4.97;;
50858;SDS011;36826;47.514;19.056;2022-08-19T01:30:13;6.10;;;5.43;;
50858;SDS011;36826;47.514;19.056;2022-08-19T01:32:42;7.88;;;5.03;;
50858;SDS011;36826;47.514;19.056;2022-08-19T01:35:08;7.90;;;5.68;;
50858;SDS011;36826;47.514;19.056;2022-08-19T01:40:12;8.30;;;6.18;;
50858;SDS011;36826;47.514;19.056;2022-08-19T01:42:37;9.63;;;5.43;;
50858;SDS011;36826;47.514;19.056;2022-08-19T01:45:03;7.43;;;5.22;;
50858;SDS011;36826;47.514;19.056;2022-08-19T01:49:57;6.65;;;5.60;;
50858;SDS011;36826;47.514;19.056;2022-08-19T01:52:23;8.43;;;5.47;;
50858;SDS011;36826;47.514;19.056;2022-08-19T01:54:48;6.88;;;5.30;;
50858;SDS011;36826;47.514;19.056;2022-08-19T01:57:14;6.20;;;5.45;;
50858;SDS011;36826;47.514;19.056;2022-08-19T01:59:41;6.63;;;5.97;;
50858;SDS011;36826;47.514;19.056;2022-08-19T02:02:08;6.18;;;5.45;;
50858;SDS011;36826;47.514;19.056;2022-08-19T02:04:34;7.65;;;5.70;;
50858;SDS011;36826;47.514;19.056;2022-08-19T02:07:00;8.88;;;5.97;;
50858;SDS011;36826;47.514;19.056;2022-08-19T02:09:26;6.50;;;5.70;;
50858;SDS011;36826;47.514;19.056;2022-08-19T02:11:51;8.55;;;5.88;;
50858;SDS011;36826;47.514;19.056;2022-08-19T02:14:18;7.55;;;6.13;;
50858;SDS011;36826;47.514;19.056;2022-08-19T02:16:43;7.43;;;6.10;;
50858;SDS011;36826;47.514;19.056;2022-08-19T02:19:09;9.07;;;5.80;;
50858;SDS011;36826;47.514;19.056;2022-08-19T02:21:35;9.73;;;5.90;;
50858;SDS011;36826;47.514;19.056;2022-08-19T02:24:01;6.85;;;6.15;;
50858;SDS011;36826;47.514;19.056;2022-08-19T02:26:27;7.43;;;5.82;;
50858;SDS011;36826;47.514;19.056;2022-08-19T02:28:52;8.82;;;6.32;;
50858;SDS011;36826;47.514;19.056;2022-08-19T02:31:20;8.10;;;6.45;;
50858;SDS011;36826;47.514;19.056;2022-08-19T02:33:47;8.35;;;6.53;;
50858;SDS011;36826;47.514;19.056;2022-08-19T02:36:13;8.93;;;6.43;;
50858;SDS011;36826;47.514;19.056;2022-08-19T02:38:41;7.35;;;6.47;;
50858;SDS011;36826;47.514;19.056;2022-08-19T02:41:09;9.82;;;6.50;;
50858;SDS011;36826;47.514;19.056;2022-08-19T02:43:38;7.28;;;6.50;;
50858;SDS011;36826;47.514;19.056;2022-08-19T02:46:19;8.13;;;6.55;;
50858;SDS011;36826;47.514;19.056;2022-08-19T02:48:50;9.02;;;6.43;;
50858;SDS011;36826;47.514;19.056;2022-08-19T02:51:19;7.80;;;6.43;;
50858;SDS011;36826;47.514;19.056;2022-08-19T02:53:47;8.43;;;6.38;;
50858;SDS011;36826;47.514;19.056;2022-08-19T02:56:13;6.82;;;6.13;;
50858;SDS011;36826;47.514;19.056;2022-08-19T02:58:39;7.13;;;6.40;;
50858;SDS011;36826;47.514;19.056;2022-08-19T03:01:05;7.97;;;6.60;;
50858;SDS011;36826;47.514;19.056;2022-08-19T03:03:31;9.13;;;6.22;;
50858;SDS011;36826;47.514;19.056;2022-08-19T03:06:11;8.40;;;6.40;;
50858;SDS011;36826;47.514;19.056;2022-08-19T03:08:38;8.13;;;6.30;;
50858;SDS011;36826;47.514;19.056;2022-08-19T03:11:06;10.48;;;6.65;;
50858;SDS011;36826;47.514;19.056;2022-08-19T03:13:37;9.00;;;6.95;;
50858;SDS011;36826;47.514;19.056;2022-08-19T03:16:04;10.25;;;6.50;;
50858;SDS011;36826;47.514;19.056;2022-08-19T03:18:30;9.10;;;6.88;;
50858;SDS011;36826;47.514;19.056;2022-08-19T03:20:55;10.38;;;6.72;;
50858;SDS011;36826;47.514;19.056;2022-08-19T03:23:21;9.07;;;6.63;;
50858;SDS011;36826;47.514;19.056;2022-08-19T03:25:48;9.05;;;6.60;;
50858;SDS011;36826;47.514;19.056;2022-08-19T03:28:15;8.53;;;7.07;;
50858;SDS011;36826;47.514;19.056;2022-08-19T03:30:41;8.48;;;6.78;;
50858;SDS011;36826;47.514;19.056;2022-08-19T03:33:09;7.80;;;6.68;;
50858;SDS011;36826;47.514;19.056;2022-08-19T03:35:37;8.00;;;6.50;;
50858;SDS011;36826;47.514;19.056;2022-08-19T03:38:05;7.45;;;6.75;;
50858;SDS011;36826;47.514;19.056;2022-08-19T03:40:36;10.85;;;6.28;;
50858;SDS011;36826;47.514;19.056;2022-08-19T03:43:02;9.32;;;6.97;;
50858;SDS011;36826;47.514;19.056;2022-08-19T03:45:27;7.28;;;6.57;;
50858;SDS011;36826;47.514;19.056;2022-08-19T03:47:53;8.70;;;6.85;;
50858;SDS011;36826;47.514;19.056;2022-08-19T03:50:20;9.43;;;6.90;;
50858;SDS011;36826;47.514;19.056;2022-08-19T03:52:49;7.18;;;6.45;;
50858;SDS011;36826;47.514;19.056;2022-08-19T03:55:15;9.48;;;6.47;;
50858;SDS011;36826;47.514;19.056;2022-08-19T03:57:41;13.52;;;6.50;;
50858;SDS011;36826;47.514;19.056;2022-08-19T04:00:07;8.63;;;6.30;;
50858;SDS011;36826;47.514;19.056;2022-08-19T04:02:33;9.50;;;6.53;;
50858;SDS011;36826;47.514;19.056;2022-08-19T04:04:58;7.53;;;6.45;;
50858;SDS011;36826;47.514;19.056;2022-08-19T04:07:23;9.23;;;6.15;;
50858;SDS011;36826;47.514;19.056;2022-08-19T04:09:49;9.68;;;6.85;;
50858;SDS011;36826;47.514;19.056;2022-08-19T04:12:17;8.03;;;6.40;;
50858;SDS011;36826;47.514;19.056;2022-08-19T04:14:44;6.90;;;6.20;;
50858;SDS011;36826;47.514;19.056;2022-08-19T04:17:09;8.85;;;6.30;;
50858;SDS011;36826;47.514;19.056;2022-08-19T04:19:35;7.15;;;6.15;;
50858;SDS011;36826;47.514;19.056;2022-08-19T04:22:01;7.80;;;6.10;;
50858;SDS011;36826;47.514;19.056;2022-08-19T04:24:27;8.07;;;6.22;;
50858;SDS011;36826;47.514;19.056;2022-08-19T04:26:53;9.95;;;6.28;;
50858;SDS011;36826;47.514;19.056;2022-08-19T04:29:20;11.98;;;6.35;;
50858;SDS011;36826;47.514;19.056;2022-08-19T04:31:49;8.10;;;5.90;;
50858;SDS011;36826;47.514;19.056;2022-08-19T04:34:16;8.13;;;6.13;;
50858;SDS011;36826;47.514;19.056;2022-08-19T04:36:43;11.50;;;6.25;;
50858;SDS011;36826;47.514;19.056;2022-08-19T04:39:12;18.95;;;11.15;;
50858;SDS011;36826;47.514;19.056;2022-08-19T04:41:40;15.63;;;9.57;;
50858;SDS011;36826;47.514;19.056;2022-08-19T04:44:24;14.63;;;9.82;;
50858;SDS011;36826;47.514;19.056;2022-08-19T04:46:51;17.58;;;12.02;;
50858;SDS011;36826;47.514;19.056;2022-08-19T04:49:17;13.73;;;9.55;;
50858;SDS011;36826;47.514;19.056;2022-08-19T04:51:46;13.35;;;9.05;;
50858;SDS011;36826;47.514;19.056;2022-08-19T04:54:12;12.15;;;6.90;;
50858;SDS011;36826;47.514;19.056;2022-08-19T04:56:39;12.57;;;7.30;;
50858;SDS011;36826;47.514;19.056;2022-08-19T04:59:05;8.03;;;6.07;;
50858;SDS011;36826;47.514;19.056;2022-08-19T05:01:31;7.50;;;5.38;;
50858;SDS011;36826;47.514;19.056;2022-08-19T05:03:58;8.32;;;5.47;;
50858;SDS011;36826;47.514;19.056;2022-08-19T05:06:26;11.70;;;6.03;;
50858;SDS011;36826;47.514;19.056;2022-08-19T05:08:53;7.70;;;5.63;;
50858;SDS011;36826;47.514;19.056;2022-08-19T05:11:23;9.02;;;5.90;;
50858;SDS011;36826;47.514;19.056;2022-08-19T05:13:50;6.68;;;5.63;;
50858;SDS011;36826;47.514;19.056;2022-08-19T05:16:21;9.07;;;5.05;;
50858;SDS011;36826;47.514;19.056;2022-08-19T05:18:47;8.73;;;5.30;;
50858;SDS011;36826;47.514;19.056;2022-08-19T05:21:32;6.75;;;5.30;;
50858;SDS011;36826;47.514;19.056;2022-08-19T05:24:17;8.55;;;5.30;;
50858;SDS011;36826;47.514;19.056;2022-08-19T05:26:44;9.73;;;5.00;;
50858;SDS011;36826;47.514;19.056;2022-08-19T05:29:12;9.95;;;5.07;;
50858;SDS011;36826;47.514;19.056;2022-08-19T05:31:40;13.55;;;5.53;;
50858;SDS011;36826;47.514;19.056;2022-08-19T05:34:06;7.00;;;4.95;;
50858;SDS011;36826;47.514;19.056;2022-08-19T05:36:38;7.72;;;5.55;;
50858;SDS011;36826;47.514;19.056;2022-08-19T05:39:09;10.27;;;4.60;;
50858;SDS011;36826;47.514;19.056;2022-08-19T05:41:37;11.52;;;4.63;;
50858;SDS011;36826;47.514;19.056;2022-08-19T05:44:07;5.85;;;4.65;;
50858;SDS011;36826;47.514;19.056;2022-08-19T05:46:34;7.82;;;4.70;;
50858;SDS011;36826;47.514;19.056;2022-08-19T05:49:02;6.20;;;4.10;;
50858;SDS011;36826;47.514;19.056;2022-08-19T05:53:54;7.90;;;4.50;;
50858;SDS011;36826;47.514;19.056;2022-08-19T05:56:20;9.37;;;4.57;;
50858;SDS011;36826;47.514;19.056;2022-08-19T05:58:45;9.53;;;4.10;;
50858;SDS011;36826;47.514;19.056;2022-08-19T06:01:14;7.60;;;4.33;;
50858;SDS011;36826;47.514;19.056;2022-08-19T06:03:42;8.10;;;4.50;;
50858;SDS011;36826;47.514;19.056;2022-08-19T06:06:09;9.70;;;4.47;;
50858;SDS011;36826;47.514;19.056;2022-08-19T06:08:36;8.50;;;4.07;;
50858;SDS011;36826;47.514;19.056;2022-08-19T06:14:09;7.65;;;4.28;;
50858;SDS011;36826;47.514;19.056;2022-08-19T06:16:37;5.35;;;4.15;;
50858;SDS011;36826;47.514;19.056;2022-08-19T06:19:06;5.95;;;4.20;;
50858;SDS011;36826;47.514;19.056;2022-08-19T06:21:41;8.95;;;4.38;;
50858;SDS011;36826;47.514;19.056;2022-08-19T06:24:10;6.38;;;4.13;;
50858;SDS011;36826;47.514;19.056;2022-08-19T06:26:39;7.05;;;4.22;;
50858;SDS011;36826;47.514;19.056;2022-08-19T06:29:07;6.22;;;4.10;;
50858;SDS011;36826;47.514;19.056;2022-08-19T06:31:35;7.60;;;4.45;;
50858;SDS011;36826;47.514;19.056;2022-08-19T06:34:02;6.75;;;3.95;;
50858;SDS011;36826;47.514;19.056;2022-08-19T06:36:31;7.43;;;4.07;;
50858;SDS011;36826;47.514;19.056;2022-08-19T06:39:03;7.85;;;3.95;;
50858;SDS011;36826;47.514;19.056;2022-08-19T06:41:34;5.90;;;4.30;;
50858;SDS011;36826;47.514;19.056;2022-08-19T06:44:00;7.22;;;4.50;;
50858;SDS011;36826;47.514;19.056;2022-08-19T06:46:26;9.53;;;4.17;;
50858;SDS011;36826;47.514;19.056;2022-08-19T06:48:52;6.38;;;4.18;;
50858;SDS011;36826;47.514;19.056;2022-08-19T06:51:19;10.27;;;4.63;;
50858;SDS011;36826;47.514;19.056;2022-08-19T06:53:46;6.22;;;3.88;;
50858;SDS011;36826;47.514;19.056;2022-08-19T06:56:18;6.63;;;4.15;;
50858;SDS011;36826;47.514;19.056;2022-08-19T06:58:46;6.88;;;4.20;;
50858;SDS011;36826;47.514;19.056;2022-08-19T07:01:12;8.13;;;4.20;;
50858;SDS011;36826;47.514;19.056;2022-08-19T07:03:38;6.03;;;4.25;;
50858;SDS011;36826;47.514;19.056;2022-08-19T07:06:04;5.97;;;3.88;;
50858;SDS011;36826;47.514;19.056;2022-08-19T07:08:33;7.70;;;4.10;;
50858;SDS011;36826;47.514;19.056;2022-08-19T07:10:59;7.65;;;4.00;;
50858;SDS011;36826;47.514;19.056;2022-08-19T07:13:25;6.85;;;4.40;;
50858;SDS011;36826;47.514;19.056;2022-08-19T07:15:50;5.93;;;3.85;;
50858;SDS011;36826;47.514;19.056;2022-08-19T07:20:45;8.40;;;4.03;;
50858;SDS011;36826;47.514;19.056;2022-08-19T07:25:36;7.50;;;3.88;;
50858;SDS011;36826;47.514;19.056;2022-08-19T07:28:03;6.95;;;3.67;;
50858;SDS011;36826;47.514;19.056;2022-08-19T07:30:28;6.90;;;3.53;;
50858;SDS011;36826;47.514;19.056;2022-08-19T07:32:54;6.93;;;3.70;;
50858;SDS011;36826;47.514;19.056;2022-08-19T07:35:21;9.43;;;3.90;;
50858;SDS011;36826;47.514;19.056;2022-08-19T07:37:46;6.15;;;3.35;;
50858;SDS011;36826;47.514;19.056;2022-08-19T07:40:12;7.60;;;3.58;;
50858;SDS011;36826;47.514;19.056;2022-08-19T07:42:38;11.20;;;3.90;;
50858;SDS011;36826;47.514;19.056;2022-08-19T07:45:04;5.20;;;4.00;;
50858;SDS011;36826;47.514;19.056;2022-08-19T07:47:31;7.55;;;3.50;;
50858;SDS011;36826;47.514;19.056;2022-08-19T07:49:57;5.93;;;4.03;;
50858;SDS011;36826;47.514;19.056;2022-08-19T07:52:22;6.38;;;3.70;;
50858;SDS011;36826;47.514;19.056;2022-08-19T07:54:48;6.00;;;3.67;;
50858;SDS011;36826;47.514;19.056;2022-08-19T07:57:14;5.07;;;3.63;;
50858;SDS011;36826;47.514;19.056;2022-08-19T07:59:41;3.22;;;2.92;;
50858;SDS011;36826;47.514;19.056;2022-08-19T08:02:07;6.38;;;3.38;;
50858;SDS011;36826;47.514;19.056;2022-08-19T08:04:34;4.72;;;3.22;;
50858;SDS011;36826;47.514;19.056;2022-08-19T08:07:29;6.03;;;3.40;;
50858;SDS011;36826;47.514;19.056;2022-08-19T08:10:13;5.88;;;3.83;;
50858;SDS011;36826;47.514;19.056;2022-08-19T08:12:39;4.63;;;3.35;;
50858;SDS011;36826;47.514;19.056;2022-08-19T08:15:13;4.15;;;3.00;;
50858;SDS011;36826;47.514;19.056;2022-08-19T08:17:41;4.35;;;3.30;;
50858;SDS011;36826;47.514;19.056;2022-08-19T08:20:08;5.00;;;3.00;;
50858;SDS011;36826;47.514;19.056;2022-08-19T08:22:34;7.32;;;3.10;;
50858;SDS011;36826;47.514;19.056;2022-08-19T08:25:20;6.55;;;3.20;;
50858;SDS011;36826;47.514;19.056;2022-08-19T08:27:48;4.20;;;2.83;;
50858;SDS011;36826;47.514;19.056;2022-08-19T08:30:21;4.63;;;3.20;;
50858;SDS011;36826;47.514;19.056;2022-08-19T08:32:48;5.00;;;2.85;;
50858;SDS011;36826;47.514;19.056;2022-08-19T08:35:16;4.40;;;3.13;;
50858;SDS011;36826;47.514;19.056;2022-08-19T08:37:43;8.25;;;3.30;;
50858;SDS011;36826;47.514;19.056;2022-08-19T08:42:36;5.90;;;3.42;;
50858;SDS011;36826;47.514;19.056;2022-08-19T08:45:11;6.70;;;3.70;;
50858;SDS011;36826;47.514;19.056;2022-08-19T08:47:41;4.85;;;3.22;;
50858;SDS011;36826;47.514;19.056;2022-08-19T08:50:13;4.22;;;3.13;;
50858;SDS011;36826;47.514;19.056;2022-08-19T08:52:45;6.85;;;3.38;;
50858;SDS011;36826;47.514;19.056;2022-08-19T08:55:14;4.32;;;2.90;;
50858;SDS011;36826;47.514;19.056;2022-08-19T08:57:49;5.20;;;3.22;;
50858;SDS011;36826;47.514;19.056;2022-08-19T09:00:30;4.03;;;3.00;;
50858;SDS011;36826;47.514;19.056;2022-08-19T09:03:02;4.32;;;3.50;;
50858;SDS011;36826;47.514;19.056;2022-08-19T09:05:42;5.10;;;3.28;;
50858;SDS011;36826;47.514;19.056;2022-08-19T09:11:03;5.60;;;3.17;;
50858;SDS011;36826;47.514;19.056;2022-08-19T09:16:24;6.90;;;3.40;;
50858;SDS011;36826;47.514;19.056;2022-08-19T09:18:52;5.85;;;2.88;;
50858;SDS011;36826;47.514;19.056;2022-08-19T09:21:20;3.45;;;2.83;;
50858;SDS011;36826;47.514;19.056;2022-08-19T09:23:47;3.88;;;3.08;;
50858;SDS011;36826;47.514;19.056;2022-08-19T09:26:14;3.92;;;2.88;;
50858;SDS011;36826;47.514;19.056;2022-08-19T09:28:43;5.88;;;3.10;;
50858;SDS011;36826;47.514;19.056;2022-08-19T09:31:11;6.18;;;3.13;;
50858;SDS011;36826;47.514;19.056;2022-08-19T09:33:40;5.15;;;2.90;;
50858;SDS011;36826;47.514;19.056;2022-08-19T09:36:09;3.83;;;2.80;;
50858;SDS011;36826;47.514;19.056;2022-08-19T09:38:37;5.55;;;3.15;;
50858;SDS011;36826;47.514;19.056;2022-08-19T09:41:07;4.78;;;3.50;;
50858;SDS011;36826;47.514;19.056;2022-08-19T09:43:37;4.43;;;2.70;;
50858;SDS011;36826;47.514;19.056;2022-08-19T09:46:03;3.90;;;3.03;;
50858;SDS011;36826;47.514;19.056;2022-08-19T09:48:31;5.03;;;3.10;;
50858;SDS011;36826;47.514;19.056;2022-08-19T09:51:04;5.32;;;3.20;;
50858;SDS011;36826;47.514;19.056;2022-08-19T09:53:33;3.40;;;3.10;;
50858;SDS011;36826;47.514;19.056;2022-08-19T09:56:02;5.50;;;2.80;;
50858;SDS011;36826;47.514;19.056;2022-08-19T09:58:28;3.17;;;2.85;;
50858;SDS011;36826;47.514;19.056;2022-08-19T10:00:55;4.07;;;3.10;;
50858;SDS011;36826;47.514;19.056;2022-08-19T10:03:21;3.92;;;2.80;;
50858;SDS011;36826;47.514;19.056;2022-08-19T10:05:47;4.65;;;2.90;;
50858;SDS011;36826;47.514;19.056;2022-08-19T10:08:16;3.65;;;2.97;;
50858;SDS011;36826;47.514;19.056;2022-08-19T10:10:43;3.40;;;2.70;;
50858;SDS011;36826;47.514;19.056;2022-08-19T10:13:11;3.95;;;3.08;;
50858;SDS011;36826;47.514;19.056;2022-08-19T10:15:37;3.78;;;2.80;;
50858;SDS011;36826;47.514;19.056;2022-08-19T10:18:05;5.05;;;3.17;;
50858;SDS011;36826;47.514;19.056;2022-08-19T10:20:32;3.45;;;3.00;;
50858;SDS011;36826;47.514;19.056;2022-08-19T10:22:57;5.70;;;3.03;;
50858;SDS011;36826;47.514;19.056;2022-08-19T10:25:24;5.13;;;2.90;;
50858;SDS011;36826;47.514;19.056;2022-08-19T10:27:51;4.57;;;3.30;;
50858;SDS011;36826;47.514;19.056;2022-08-19T10:30:17;5.60;;;3.03;;
50858;SDS011;36826;47.514;19.056;2022-08-19T10:32:43;4.70;;;3.30;;
50858;SDS011;36826;47.514;19.056;2022-08-19T10:35:11;6.35;;;3.40;;
50858;SDS011;36826;47.514;19.056;2022-08-19T10:37:38;3.85;;;3.10;;
50858;SDS011;36826;47.514;19.056;2022-08-19T10:40:04;4.25;;;2.60;;
50858;SDS011;36826;47.514;19.056;2022-08-19T10:42:31;6.15;;;3.42;;
50858;SDS011;36826;47.514;19.056;2022-08-19T10:44:57;5.40;;;3.40;;
50858;SDS011;36826;47.514;19.056;2022-08-19T10:47:23;4.60;;;2.97;;
50858;SDS011;36826;47.514;19.056;2022-08-19T10:49:48;5.63;;;3.38;;
50858;SDS011;36826;47.514;19.056;2022-08-19T10:52:32;6.00;;;3.08;;
50858;SDS011;36826;47.514;19.056;2022-08-19T10:54:59;3.58;;;3.08;;
50858;SDS011;36826;47.514;19.056;2022-08-19T10:57:44;4.88;;;3.10;;
50858;SDS011;36826;47.514;19.056;2022-08-19T11:00:09;6.43;;;3.10;;
50858;SDS011;36826;47.514;19.056;2022-08-19T11:02:36;6.03;;;3.50;;
50858;SDS011;36826;47.514;19.056;2022-08-19T11:05:01;4.45;;;2.80;;
50858;SDS011;36826;47.514;19.056;2022-08-19T11:07:27;8.30;;;3.20;;
50858;SDS011;36826;47.514;19.056;2022-08-19T11:09:53;7.45;;;2.90;;
50858;SDS011;36826;47.514;19.056;2022-08-19T11:12:18;5.88;;;3.13;;
50858;SDS011;36826;47.514;19.056;2022-08-19T11:14:44;6.13;;;3.20;;
50858;SDS011;36826;47.514;19.056;2022-08-19T11:17:10;5.35;;;3.47;;
50858;SDS011;36826;47.514;19.056;2022-08-19T11:19:38;6.32;;;3.15;;
50858;SDS011;36826;47.514;19.056;2022-08-19T11:22:06;7.90;;;3.28;;
50858;SDS011;36826;47.514;19.056;2022-08-19T11:24:34;6.53;;;3.70;;
50858;SDS011;36826;47.514;19.056;2022-08-19T11:27:01;6.50;;;4.00;;
50858;SDS011;36826;47.514;19.056;2022-08-19T11:29:30;5.10;;;4.10;;
50858;SDS011;36826;47.514;19.056;2022-08-19T11:31:56;7.38;;;4.50;;
50858;SDS011;36826;47.514;19.056;2022-08-19T11:34:23;7.20;;;3.90;;
50858;SDS011;36826;47.514;19.056;2022-08-19T11:36:51;5.72;;;4.18;;
50858;SDS011;36826;47.514;19.056;2022-08-19T11:39:18;7.38;;;3.15;;
50858;SDS011;36826;47.514;19.056;2022-08-19T11:41:45;8.95;;;4.30;;
50858;SDS011;36826;47.514;19.056;2022-08-19T11:44:10;6.40;;;4.00;;
50858;SDS011;36826;47.514;19.056;2022-08-19T11:46:38;6.85;;;3.78;;
50858;SDS011;36826;47.514;19.056;2022-08-19T11:49:05;6.90;;;3.47;;
50858;SDS011;36826;47.514;19.056;2022-08-19T11:53:58;6.50;;;3.40;;
50858;SDS011;36826;47.514;19.056;2022-08-19T11:56:24;5.57;;;3.35;;
50858;SDS011;36826;47.514;19.056;2022-08-19T11:58:51;6.38;;;3.88;;
50858;SDS011;36826;47.514;19.056;2022-08-19T12:01:18;4.88;;;3.33;;
50858;SDS011;36826;47.514;19.056;2022-08-19T12:03:46;5.38;;;3.35;;
50858;SDS011;36826;47.514;19.056;2022-08-19T12:06:14;8.57;;;3.72;;
50858;SDS011;36826;47.514;19.056;2022-08-19T12:08:42;6.68;;;3.72;;
50858;SDS011;36826;47.514;19.056;2022-08-19T12:11:11;7.57;;;4.13;;
50858;SDS011;36826;47.514;19.056;2022-08-19T12:13:39;7.53;;;4.75;;
50858;SDS011;36826;47.514;19.056;2022-08-19T12:16:25;7.05;;;4.32;;
50858;SDS011;36826;47.514;19.056;2022-08-19T12:18:53;8.13;;;5.03;;
50858;SDS011;36826;47.514;19.056;2022-08-19T12:21:21;8.27;;;7.35;;
50858;SDS011;36826;47.514;19.056;2022-08-19T12:23:50;7.13;;;6.35;;
50858;SDS011;36826;47.514;19.056;2022-08-19T12:26:16;9.63;;;7.55;;
50858;SDS011;36826;47.514;19.056;2022-08-19T12:28:43;10.38;;;7.00;;
50858;SDS011;36826;47.514;19.056;2022-08-19T12:31:09;9.48;;;6.45;;
50858;SDS011;36826;47.514;19.056;2022-08-19T12:33:38;9.18;;;5.53;;
50858;SDS011;36826;47.514;19.056;2022-08-19T12:36:06;9.65;;;5.43;;
50858;SDS011;36826;47.514;19.056;2022-08-19T12:38:37;7.78;;;5.45;;
50858;SDS011;36826;47.514;19.056;2022-08-19T12:41:04;10.30;;;5.18;;
50858;SDS011;36826;47.514;19.056;2022-08-19T12:43:31;7.88;;;5.20;;
50858;SDS011;36826;47.514;19.056;2022-08-19T12:45:57;8.75;;;5.07;;
50858;SDS011;36826;47.514;19.056;2022-08-19T12:48:23;9.05;;;5.20;;
50858;SDS011;36826;47.514;19.056;2022-08-19T12:50:48;7.70;;;4.95;;
50858;SDS011;36826;47.514;19.056;2022-08-19T12:53:14;9.68;;;5.78;;
50858;SDS011;36826;47.514;19.056;2022-08-19T12:55:40;7.13;;;5.43;;
50858;SDS011;36826;47.514;19.056;2022-08-19T12:58:07;11.32;;;6.18;;
50858;SDS011;36826;47.514;19.056;2022-08-19T13:00:33;10.27;;;5.82;;
50858;SDS011;36826;47.514;19.056;2022-08-19T13:02:59;10.80;;;6.85;;
50858;SDS011;36826;47.514;19.056;2022-08-19T13:05:29;11.35;;;6.72;;
50858;SDS011;36826;47.514;19.056;2022-08-19T13:07:56;12.43;;;7.18;;
50858;SDS011;36826;47.514;19.056;2022-08-19T13:10:25;13.40;;;6.68;;
50858;SDS011;36826;47.514;19.056;2022-08-19T13:13:00;16.30;;;7.60;;
50858;SDS011;36826;47.514;19.056;2022-08-19T13:15:26;11.95;;;7.30;;
50858;SDS011;36826;47.514;19.056;2022-08-19T13:20:20;10.82;;;7.00;;
50858;SDS011;36826;47.514;19.056;2022-08-19T13:22:47;10.18;;;7.00;;
50858;SDS011;36826;47.514;19.056;2022-08-19T13:25:13;10.23;;;6.63;;
50858;SDS011;36826;47.514;19.056;2022-08-19T13:27:41;10.55;;;6.70;;
50858;SDS011;36826;47.514;19.056;2022-08-19T13:30:07;7.97;;;6.72;;
50858;SDS011;36826;47.514;19.056;2022-08-19T13:32:53;11.02;;;6.90;;
50858;SDS011;36826;47.514;19.056;2022-08-19T13:35:50;8.77;;;5.85;;
50858;SDS011;36826;47.514;19.056;2022-08-19T13:38:21;9.57;;;4.55;;
50858;SDS011;36826;47.514;19.056;2022-08-19T13:40:48;8.15;;;3.40;;
50858;SDS011;36826;47.514;19.056;2022-08-19T13:43:16;5.43;;;3.15;;
50858;SDS011;36826;47.514;19.056;2022-08-19T13:45:43;9.80;;;3.10;;
50858;SDS011;36826;47.514;19.056;2022-08-19T13:48:09;9.73;;;3.13;;
50858;SDS011;36826;47.514;19.056;2022-08-19T13:50:38;6.90;;;2.60;;
50858;SDS011;36826;47.514;19.056;2022-08-19T13:53:06;7.38;;;2.28;;
50858;SDS011;36826;47.514;19.056;2022-08-19T13:58:02;10.40;;;3.45;;
50858;SDS011;36826;47.514;19.056;2022-08-19T14:00:29;8.05;;;3.38;;
50858;SDS011;36826;47.514;19.056;2022-08-19T14:02:56;10.63;;;3.30;;
50858;SDS011;36826;47.514;19.056;2022-08-19T14:05:22;16.67;;;3.10;;
50858;SDS011;36826;47.514;19.056;2022-08-19T14:07:48;12.88;;;2.67;;
50858;SDS011;36826;47.514;19.056;2022-08-19T14:10:15;13.75;;;2.85;;
50858;SDS011;36826;47.514;19.056;2022-08-19T14:12:41;14.60;;;2.60;;
50858;SDS011;36826;47.514;19.056;2022-08-19T14:15:08;9.25;;;2.38;;
50858;SDS011;36826;47.514;19.056;2022-08-19T14:17:37;6.30;;;2.05;;
50858;SDS011;36826;47.514;19.056;2022-08-19T14:20:04;10.52;;;2.15;;
50858;SDS011;36826;47.514;19.056;2022-08-19T14:22:36;7.18;;;2.13;;
50858;SDS011;36826;47.514;19.056;2022-08-19T14:25:05;9.60;;;2.38;;
50858;SDS011;36826;47.514;19.056;2022-08-19T14:27:34;11.75;;;2.88;;
50858;SDS011;36826;47.514;19.056;2022-08-19T14:30:01;12.60;;;2.83;;
50858;SDS011;36826;47.514;19.056;2022-08-19T14:32:28;8.63;;;2.15;;
50858;SDS011;36826;47.514;19.056;2022-08-19T14:34:54;10.18;;;2.40;;
50858;SDS011;36826;47.514;19.056;2022-08-19T14:37:19;11.68;;;2.15;;
50858;SDS011;36826;47.514;19.056;2022-08-19T14:39:46;7.38;;;2.30;;
50858;SDS011;36826;47.514;19.056;2022-08-19T14:42:12;10.02;;;2.58;;
50858;SDS011;36826;47.514;19.056;2022-08-19T14:44:39;13.05;;;2.22;;
50858;SDS011;36826;47.514;19.056;2022-08-19T14:47:05;7.33;;;2.10;;
50858;SDS011;36826;47.514;19.056;2022-08-19T14:49:32;13.50;;;2.40;;
50858;SDS011;36826;47.514;19.056;2022-08-19T14:51:58;10.75;;;2.28;;
50858;SDS011;36826;47.514;19.056;2022-08-19T14:54:24;8.10;;;2.03;;
50858;SDS011;36826;47.514;19.056;2022-08-19T14:56:49;10.13;;;2.45;;
50858;SDS011;36826;47.514;19.056;2022-08-19T14:59:15;8.57;;;1.67;;
50858;SDS011;36826;47.514;19.056;2022-08-19T15:01:40;8.30;;;1.52;;
50858;SDS011;36826;47.514;19.056;2022-08-19T15:04:06;9.50;;;1.60;;
50858;SDS011;36826;47.514;19.056;2022-08-19T15:06:32;13.10;;;1.80;;
50858;SDS011;36826;47.514;19.056;2022-08-19T15:08:58;11.02;;;1.77;;